sensor_id;sensor_type;location;lat;lon;timestamp;pressure;altitude;pressure_sealevel;temperature;humidity
76311;BME280;65120;59.304;18.294;2023-02-28T00:01:14;102650.16;;;1.12;69.00
76311;BME280;65120;59.304;18.294;2023-02-28T00:03:42;102658.88;;;1.15;68.58
76311;BME280;65120;59.304;18.294;2023-02-28T00:06:09;102656.13;;;1.11;68.85
76311;BME280;65120;59.304;18.294;2023-02-28T00:08:37;102656.91;;;1.10;69.29
76311;BME280;65120;59.304;18.294;2023-02-28T00:11:05;102654.28;;;1.09;68.94
76311;BME280;65120;59.304;18.294;2023-02-28T00:13:35;102656.88;;;1.09;68.90
76311;BME280;65120;59.304;18.294;2023-02-28T00:16:06;102664.78;;;1.13;68.99
76311;BME280;65120;59.304;18.294;2023-02-28T00:18:34;102665.47;;;1.09;68.60
76311;BME280;65120;59.304;18.294;2023-02-28T00:21:02;102655.84;;;1.05;69.25
76311;BME280;65120;59.304;18.294;2023-02-28T00:23:29;102663.84;;;1.11;68.85
76311;BME280;65120;59.304;18.294;2023-02-28T00:25:56;102650.75;;;1.07;68.93
76311;BME280;65120;59.304;18.294;2023-02-28T00:28:23;102659.66;;;1.13;69.08
76311;BME280;65120;59.304;18.294;2023-02-28T00:30:50;102657.06;;;1.13;68.58
76311;BME280;65120;59.304;18.294;2023-02-28T00:33:19;102656.13;;;1.11;69.06
76311;BME280;65120;59.304;18.294;2023-02-28T00:35:46;102657.06;;;1.13;68.78
76311;BME280;65120;59.304;18.294;2023-02-28T00:38:14;102657.06;;;1.13;69.59
76311;BME280;65120;59.304;18.294;2023-02-28T00:40:41;102652.75;;;1.12;69.25
76311;BME280;65120;59.304;18.294;2023-02-28T00:43:08;102658.72;;;1.11;68.94
76311;BME280;65120;59.304;18.294;2023-02-28T00:45:36;102656.91;;;1.10;69.19
76311;BME280;65120;59.304;18.294;2023-02-28T00:48:03;102655.16;;;1.09;68.84
76311;BME280;65120;59.304;18.294;2023-02-28T00:50:31;102649.00;;;1.06;69.76
76311;BME280;65120;59.304;18.294;2023-02-28T00:52:58;102656.00;;;1.08;69.28
76311;BME280;65120;59.304;18.294;2023-02-28T00:55:25;102659.44;;;1.09;69.76
76311;BME280;65120;59.304;18.294;2023-02-28T00:57:52;102644.72;;;1.06;69.76
76311;BME280;65120;59.304;18.294;2023-02-28T01:00:19;102650.03;;;1.09;69.36
76311;BME280;65120;59.304;18.294;2023-02-28T01:02:46;102645.59;;;1.07;69.32
76311;BME280;65120;59.304;18.294;2023-02-28T01:05:13;102626.41;;;1.00;69.03
76311;BME280;65120;59.304;18.294;2023-02-28T01:07:41;102641.31;;;1.07;69.84
76311;BME280;65120;59.304;18.294;2023-02-28T01:10:09;102640.41;;;1.05;69.14
76311;BME280;65120;59.304;18.294;2023-02-28T01:12:36;102637.81;;;1.05;69.86
76311;BME280;65120;59.304;18.294;2023-02-28T01:15:04;102633.59;;;1.07;69.95
76311;BME280;65120;59.304;18.294;2023-02-28T01:17:31;102640.44;;;1.07;69.13
76311;BME280;65120;59.304;18.294;2023-02-28T01:19:58;102627.53;;;1.05;68.89
76311;BME280;65120;59.304;18.294;2023-02-28T01:22:25;102641.13;;;1.03;69.72
76311;BME280;65120;59.304;18.294;2023-02-28T01:24:54;102642.06;;;1.05;69.45
76311;BME280;65120;59.304;18.294;2023-02-28T01:27:21;102641.91;;;1.02;69.29
76311;BME280;65120;59.304;18.294;2023-02-28T01:29:47;102618.84;;;0.87;69.45
76311;BME280;65120;59.304;18.294;2023-02-28T01:32:14;102617.31;;;0.90;69.62
76311;BME280;65120;59.304;18.294;2023-02-28T01:34:41;102645.34;;;1.02;69.52
76311;BME280;65120;59.304;18.294;2023-02-28T01:37:08;102641.13;;;1.03;69.15
76311;BME280;65120;59.304;18.294;2023-02-28T01:39:35;102637.63;;;1.02;69.59
76311;BME280;65120;59.304;18.294;2023-02-28T01:42:04;102644.47;;;1.02;69.43
76311;BME280;65120;59.304;18.294;2023-02-28T01:45:00;102653.97;;;1.03;69.42
76311;BME280;65120;59.304;18.294;2023-02-28T01:47:30;102628.34;;;0.88;68.93
76311;BME280;65120;59.304;18.294;2023-02-28T01:50:00;102640.97;;;1.00;68.75
76311;BME280;65120;59.304;18.294;2023-02-28T01:52:28;102644.41;;;1.00;69.67
76311;BME280;65120;59.304;18.294;2023-02-28T01:54:56;102635.72;;;0.98;69.24
76311;BME280;65120;59.304;18.294;2023-02-28T01:57:29;102634.03;;;0.99;68.85
76311;BME280;65120;59.304;18.294;2023-02-28T02:00:07;102636.59;;;0.99;69.21
76311;BME280;65120;59.304;18.294;2023-02-28T02:02:36;102629.59;;;0.96;69.39
76311;BME280;65120;59.304;18.294;2023-02-28T02:05:05;102634.59;;;0.93;69.82
76311;BME280;65120;59.304;18.294;2023-02-28T02:07:36;102633.00;;;0.95;69.71
76311;BME280;65120;59.304;18.294;2023-02-28T02:10:10;102626.88;;;0.93;69.58
76311;BME280;65120;59.304;18.294;2023-02-28T02:12:55;102626.88;;;0.93;69.49
76311;BME280;65120;59.304;18.294;2023-02-28T02:15:30;102619.09;;;0.92;69.55
76311;BME280;65120;59.304;18.294;2023-02-28T02:18:04;102618.03;;;0.88;69.43
76311;BME280;65120;59.304;18.294;2023-02-28T02:20:51;102623.94;;;0.85;70.13
76311;BME280;65120;59.304;18.294;2023-02-28T02:23:44;102636.16;;;0.89;69.28
76311;BME280;65120;59.304;18.294;2023-02-28T02:26:34;102635.31;;;0.90;69.74
76311;BME280;65120;59.304;18.294;2023-02-28T02:29:26;102636.16;;;0.89;69.31
76311;BME280;65120;59.304;18.294;2023-02-28T02:35:15;102630.91;;;0.88;69.43
76311;BME280;65120;59.304;18.294;2023-02-28T02:37:58;102624.00;;;0.87;69.38
76311;BME280;65120;59.304;18.294;2023-02-28T02:40:33;102637.91;;;0.90;69.47
76311;BME280;65120;59.304;18.294;2023-02-28T02:43:07;102638.00;;;0.92;69.46
76311;BME280;65120;59.304;18.294;2023-02-28T02:45:43;102622.56;;;0.92;69.24
76311;BME280;65120;59.304;18.294;2023-02-28T02:48:14;102627.69;;;0.92;69.83
76311;BME280;65120;59.304;18.294;2023-02-28T02:50:47;102621.44;;;0.87;70.09
76311;BME280;65120;59.304;18.294;2023-02-28T02:53:17;102625.19;;;0.94;70.01
76311;BME280;65120;59.304;18.294;2023-02-28T02:55:47;102625.84;;;0.89;69.87
76311;BME280;65120;59.304;18.294;2023-02-28T02:58:21;102615.56;;;0.89;69.88
76311;BME280;65120;59.304;18.294;2023-02-28T03:00:53;102611.28;;;0.90;69.52
76311;BME280;65120;59.304;18.294;2023-02-28T03:03:22;102614.59;;;0.87;69.69
76311;BME280;65120;59.304;18.294;2023-02-28T03:05:56;102619.00;;;0.90;70.05
76311;BME280;65120;59.304;18.294;2023-02-28T03:08:24;102619.72;;;0.87;69.42
76311;BME280;65120;59.304;18.294;2023-02-28T03:10:54;102607.44;;;0.82;69.64
76311;BME280;65120;59.304;18.294;2023-02-28T03:13:59;102618.19;;;0.91;69.56
76311;BME280;65120;59.304;18.294;2023-02-28T03:16:35;102614.53;;;0.86;69.07
76311;BME280;65120;59.304;18.294;2023-02-28T03:22:08;102584.34;;;0.65;69.90
76311;BME280;65120;59.304;18.294;2023-02-28T03:24:45;102629.31;;;0.90;69.50
76311;BME280;65120;59.304;18.294;2023-02-28T03:27:17;102626.72;;;0.90;69.87
76311;BME280;65120;59.304;18.294;2023-02-28T03:29:47;102619.88;;;0.90;70.13
76311;BME280;65120;59.304;18.294;2023-02-28T03:32:19;102615.47;;;0.88;69.46
76311;BME280;65120;59.304;18.294;2023-02-28T03:34:53;102617.88;;;0.85;69.63
76311;BME280;65120;59.304;18.294;2023-02-28T03:37:25;102619.69;;;0.86;69.71
76311;BME280;65120;59.304;18.294;2023-02-28T03:39:59;102616.94;;;0.83;69.82
76311;BME280;65120;59.304;18.294;2023-02-28T03:42:30;102625.69;;;0.86;69.78
76311;BME280;65120;59.304;18.294;2023-02-28T03:45:00;102623.13;;;0.86;69.44
76311;BME280;65120;59.304;18.294;2023-02-28T03:47:32;102627.41;;;0.86;69.66
76311;BME280;65120;59.304;18.294;2023-02-28T03:50:05;102619.28;;;0.78;69.73
76311;BME280;65120;59.304;18.294;2023-02-28T03:52:47;102620.41;;;0.83;70.18
76311;BME280;65120;59.304;18.294;2023-02-28T03:55:17;102621.28;;;0.84;69.68
76311;BME280;65120;59.304;18.294;2023-02-28T03:57:53;102618.72;;;0.84;69.39
76311;BME280;65120;59.304;18.294;2023-02-28T04:00:29;102614.38;;;0.83;70.07
76311;BME280;65120;59.304;18.294;2023-02-28T04:02:58;102615.97;;;0.81;70.29
76311;BME280;65120;59.304;18.294;2023-02-28T04:05:26;102611.72;;;0.81;70.08
76311;BME280;65120;59.304;18.294;2023-02-28T04:08:03;102597.66;;;0.75;69.93
76311;BME280;65120;59.304;18.294;2023-02-28T04:10:30;102608.91;;;0.77;69.97
76311;BME280;65120;59.304;18.294;2023-02-28T04:12:57;102614.13;;;0.78;69.56
76311;BME280;65120;59.304;18.294;2023-02-28T04:15:24;102609.81;;;0.77;69.77
76311;BME280;65120;59.304;18.294;2023-02-28T04:17:52;102615.81;;;0.78;70.38
76311;BME280;65120;59.304;18.294;2023-02-28T04:20:20;102605.22;;;0.72;70.03
76311;BME280;65120;59.304;18.294;2023-02-28T04:22:47;102608.00;;;0.76;69.46
76311;BME280;65120;59.304;18.294;2023-02-28T04:25:15;102617.53;;;0.77;69.50
76311;BME280;65120;59.304;18.294;2023-02-28T04:27:42;102611.47;;;0.77;69.86
76311;BME280;65120;59.304;18.294;2023-02-28T04:30:10;102605.44;;;0.76;69.54
76311;BME280;65120;59.304;18.294;2023-02-28T04:32:37;102607.13;;;0.76;70.54
76311;BME280;65120;59.304;18.294;2023-02-28T04:35:05;102593.31;;;0.74;69.79
76311;BME280;65120;59.304;18.294;2023-02-28T04:37:32;102595.09;;;0.75;70.11
76311;BME280;65120;59.304;18.294;2023-02-28T04:40:00;102588.25;;;0.75;70.36
76311;BME280;65120;59.304;18.294;2023-02-28T04:42:29;102587.13;;;0.70;69.87
76311;BME280;65120;59.304;18.294;2023-02-28T04:45:01;102605.38;;;0.75;70.33
76311;BME280;65120;59.304;18.294;2023-02-28T04:47:28;102605.38;;;0.75;69.57
76311;BME280;65120;59.304;18.294;2023-02-28T04:49:55;102567.28;;;0.51;69.52
76311;BME280;65120;59.304;18.294;2023-02-28T04:52:22;102628.44;;;0.73;69.77
76311;BME280;65120;59.304;18.294;2023-02-28T04:54:49;102629.31;;;0.74;70.10
76311;BME280;65120;59.304;18.294;2023-02-28T04:57:16;102627.56;;;0.73;69.47
76311;BME280;65120;59.304;18.294;2023-02-28T04:59:44;102614.59;;;0.71;69.75
76311;BME280;65120;59.304;18.294;2023-02-28T05:02:11;102626.75;;;0.74;70.21
76311;BME280;65120;59.304;18.294;2023-02-28T05:04:38;102622.41;;;0.73;70.16
76311;BME280;65120;59.304;18.294;2023-02-28T05:07:05;102631.84;;;0.72;70.05
76311;BME280;65120;59.304;18.294;2023-02-28T05:09:32;102631.84;;;0.72;70.40
76311;BME280;65120;59.304;18.294;2023-02-28T05:12:00;102632.63;;;0.71;70.05
76311;BME280;65120;59.304;18.294;2023-02-28T05:14:26;102631.72;;;0.71;69.97
76311;BME280;65120;59.304;18.294;2023-02-28T05:16:55;102624.53;;;0.63;69.75
76311;BME280;65120;59.304;18.294;2023-02-28T05:19:22;102625.50;;;0.65;69.89
76311;BME280;65120;59.304;18.294;2023-02-28T05:21:51;102636.72;;;0.67;70.41
76311;BME280;65120;59.304;18.294;2023-02-28T05:24:18;102640.16;;;0.68;69.78
76311;BME280;65120;59.304;18.294;2023-02-28T05:26:49;102643.66;;;0.69;70.08
76311;BME280;65120;59.304;18.294;2023-02-28T05:29:17;102632.31;;;0.65;69.84
76311;BME280;65120;59.304;18.294;2023-02-28T05:31:44;102637.53;;;0.66;70.14
76311;BME280;65120;59.304;18.294;2023-02-28T05:34:13;102628.84;;;0.64;69.81
76311;BME280;65120;59.304;18.294;2023-02-28T05:36:41;102633.13;;;0.64;69.94
76311;BME280;65120;59.304;18.294;2023-02-28T05:39:09;102625.00;;;0.56;69.86
76311;BME280;65120;59.304;18.294;2023-02-28T05:41:41;102643.31;;;0.62;70.45
76311;BME280;65120;59.304;18.294;2023-02-28T05:44:09;102649.28;;;0.61;69.96
76311;BME280;65120;59.304;18.294;2023-02-28T05:46:36;102644.84;;;0.59;70.36
76311;BME280;65120;59.304;18.294;2023-02-28T05:49:04;102643.09;;;0.58;70.17
76311;BME280;65120;59.304;18.294;2023-02-28T05:51:32;102637.06;;;0.57;69.55
76311;BME280;65120;59.304;18.294;2023-02-28T05:54:00;102640.53;;;0.58;70.22
76311;BME280;65120;59.304;18.294;2023-02-28T05:56:28;102618.41;;;0.45;70.27
76311;BME280;65120;59.304;18.294;2023-02-28T05:58:55;102640.41;;;0.56;70.35
76311;BME280;65120;59.304;18.294;2023-02-28T06:01:27;102634.25;;;0.53;69.72
76311;BME280;65120;59.304;18.294;2023-02-28T06:03:58;102651.53;;;0.55;70.13
76311;BME280;65120;59.304;18.294;2023-02-28T06:06:25;102647.19;;;0.54;70.00
76311;BME280;65120;59.304;18.294;2023-02-28T06:08:53;102654.00;;;0.54;70.06
76311;BME280;65120;59.304;18.294;2023-02-28T06:11:20;102658.97;;;0.51;70.52
76311;BME280;65120;59.304;18.294;2023-02-28T06:13:53;102656.50;;;0.52;69.78
76311;BME280;65120;59.304;18.294;2023-02-28T06:16:20;102617.88;;;0.34;70.48
76311;BME280;65120;59.304;18.294;2023-02-28T06:18:47;102660.84;;;0.53;70.54
76311;BME280;65120;59.304;18.294;2023-02-28T06:21:14;102658.09;;;0.50;70.08
76311;BME280;65120;59.304;18.294;2023-02-28T06:23:41;102661.72;;;0.54;70.58
76311;BME280;65120;59.304;18.294;2023-02-28T06:26:11;102662.63;;;0.54;70.29
76311;BME280;65120;59.304;18.294;2023-02-28T06:28:38;102666.94;;;0.55;70.27
76311;BME280;65120;59.304;18.294;2023-02-28T06:31:07;102649.78;;;0.54;70.42
76311;BME280;65120;59.304;18.294;2023-02-28T06:33:34;102659.97;;;0.53;70.66
76311;BME280;65120;59.304;18.294;2023-02-28T06:36:01;102659.41;;;0.58;70.31
76311;BME280;65120;59.304;18.294;2023-02-28T06:38:28;102659.41;;;0.58;70.80
76311;BME280;65120;59.304;18.294;2023-02-28T06:40:56;102659.56;;;0.61;70.79
76311;BME280;65120;59.304;18.294;2023-02-28T06:43:27;102655.28;;;0.62;70.29
76311;BME280;65120;59.304;18.294;2023-02-28T06:45:55;102667.44;;;0.64;70.26
76311;BME280;65120;59.304;18.294;2023-02-28T06:48:23;102661.50;;;0.65;70.87
76311;BME280;65120;59.304;18.294;2023-02-28T06:50:50;102659.09;;;0.69;70.56
76311;BME280;65120;59.304;18.294;2023-02-28T06:53:17;102659.00;;;0.67;70.74
76311;BME280;65120;59.304;18.294;2023-02-28T06:55:44;102667.03;;;0.73;70.51
76311;BME280;65120;59.304;18.294;2023-02-28T06:58:11;102661.97;;;0.75;70.20
76311;BME280;65120;59.304;18.294;2023-02-28T07:00:42;102663.00;;;0.78;71.33
76311;BME280;65120;59.304;18.294;2023-02-28T07:03:10;102654.41;;;0.78;70.96
76311;BME280;65120;59.304;18.294;2023-02-28T07:05:37;102664.19;;;0.85;71.12
76311;BME280;65120;59.304;18.294;2023-02-28T07:08:05;102659.78;;;0.82;70.89
76311;BME280;65120;59.304;18.294;2023-02-28T07:10:32;102676.59;;;0.92;70.34
76311;BME280;65120;59.304;18.294;2023-02-28T07:13:00;102670.72;;;0.95;70.48
76311;BME280;65120;59.304;18.294;2023-02-28T07:15:27;102665.00;;;1.00;70.29
76311;BME280;65120;59.304;18.294;2023-02-28T07:17:55;102665.94;;;1.02;70.96
76311;BME280;65120;59.304;18.294;2023-02-28T07:20:23;102658.22;;;1.02;71.06
76311;BME280;65120;59.304;18.294;2023-02-28T07:22:52;102664.63;;;1.10;71.02
76311;BME280;65120;59.304;18.294;2023-02-28T07:25:22;102660.56;;;1.14;70.75
76311;BME280;65120;59.304;18.294;2023-02-28T07:27:49;102659.00;;;1.18;70.79
76311;BME280;65120;59.304;18.294;2023-02-28T07:30:16;102654.84;;;1.20;70.50
76311;BME280;65120;59.304;18.294;2023-02-28T07:32:44;102659.41;;;1.25;70.59
76311;BME280;65120;59.304;18.294;2023-02-28T07:35:12;102660.50;;;1.30;70.11
76311;BME280;65120;59.304;18.294;2023-02-28T07:37:40;102663.31;;;1.35;70.73
76311;BME280;65120;59.304;18.294;2023-02-28T07:40:10;102660.97;;;1.40;70.69
76311;BME280;65120;59.304;18.294;2023-02-28T07:42:38;102658.59;;;1.44;70.73
76311;BME280;65120;59.304;18.294;2023-02-28T07:45:07;102659.72;;;1.49;70.33
76311;BME280;65120;59.304;18.294;2023-02-28T07:47:37;102657.16;;;1.49;70.51
76311;BME280;65120;59.304;18.294;2023-02-28T07:50:05;102653.31;;;1.59;70.65
76311;BME280;65120;59.304;18.294;2023-02-28T07:52:33;102654.50;;;1.66;70.36
76311;BME280;65120;59.304;18.294;2023-02-28T07:55:00;102656.41;;;1.70;71.06
76311;BME280;65120;59.304;18.294;2023-02-28T07:57:27;102647.13;;;1.73;70.62
76311;BME280;65120;59.304;18.294;2023-02-28T07:59:54;102649.19;;;1.80;70.69
76311;BME280;65120;59.304;18.294;2023-02-28T08:02:21;102651.19;;;1.86;70.86
76311;BME280;65120;59.304;18.294;2023-02-28T08:04:48;102644.56;;;1.91;70.06
76311;BME280;65120;59.304;18.294;2023-02-28T08:07:16;102650.00;;;1.97;70.19
76311;BME280;65120;59.304;18.294;2023-02-28T08:09:48;102622.97;;;1.89;70.32
76311;BME280;65120;59.304;18.294;2023-02-28T08:12:18;102642.81;;;2.10;70.15
76311;BME280;65120;59.304;18.294;2023-02-28T08:14:49;102638.69;;;2.13;69.96
76311;BME280;65120;59.304;18.294;2023-02-28T08:17:16;102650.19;;;2.20;69.91
76311;BME280;65120;59.304;18.294;2023-02-28T08:19:45;102634.03;;;2.24;70.37
76311;BME280;65120;59.304;18.294;2023-02-28T08:22:12;102631.06;;;2.34;70.16
76311;BME280;65120;59.304;18.294;2023-02-28T08:24:40;102643.41;;;2.41;70.01
76311;BME280;65120;59.304;18.294;2023-02-28T08:27:09;102638.47;;;2.46;69.37
76311;BME280;65120;59.304;18.294;2023-02-28T08:29:37;102640.28;;;2.48;69.81
76311;BME280;65120;59.304;18.294;2023-02-28T08:32:04;102646.81;;;2.60;69.72
76311;BME280;65120;59.304;18.294;2023-02-28T08:34:31;102647.97;;;2.66;69.83
76311;BME280;65120;59.304;18.294;2023-02-28T08:36:58;102636.75;;;2.66;69.61
76311;BME280;65120;59.304;18.294;2023-02-28T08:39:25;102631.88;;;2.72;69.49
76311;BME280;65120;59.304;18.294;2023-02-28T08:41:52;102627.72;;;2.76;69.10
76311;BME280;65120;59.304;18.294;2023-02-28T08:44:21;102644.75;;;2.91;69.54
76311;BME280;65120;59.304;18.294;2023-02-28T08:46:48;102642.38;;;2.96;69.06
76311;BME280;65120;59.304;18.294;2023-02-28T08:49:15;102634.06;;;3.03;68.91
76311;BME280;65120;59.304;18.294;2023-02-28T08:51:42;102636.00;;;3.09;69.36
76311;BME280;65120;59.304;18.294;2023-02-28T08:54:09;102628.53;;;3.15;68.50
76311;BME280;65120;59.304;18.294;2023-02-28T08:56:38;102628.66;;;3.18;68.64
76311;BME280;65120;59.304;18.294;2023-02-28T08:59:05;102628.91;;;3.24;68.50
76311;BME280;65120;59.304;18.294;2023-02-28T09:01:33;102628.34;;;3.31;68.11
76311;BME280;65120;59.304;18.294;2023-02-28T09:04:01;102625.97;;;3.36;68.41
76311;BME280;65120;59.304;18.294;2023-02-28T09:06:29;102617.50;;;3.40;68.31
76311;BME280;65120;59.304;18.294;2023-02-28T09:08:56;102593.88;;;3.31;68.18
76311;BME280;65120;59.304;18.294;2023-02-28T09:11:28;102611.78;;;3.47;68.13
76311;BME280;65120;59.304;18.294;2023-02-28T09:13:55;102603.31;;;3.51;68.58
76311;BME280;65120;59.304;18.294;2023-02-28T09:16:22;102603.44;;;3.54;67.96
76311;BME280;65120;59.304;18.294;2023-02-28T09:18:50;102597.63;;;3.60;67.88
76311;BME280;65120;59.304;18.294;2023-02-28T09:21:18;102589.94;;;3.62;67.66
76311;BME280;65120;59.304;18.294;2023-02-28T09:23:47;102591.06;;;3.68;67.50
76311;BME280;65120;59.304;18.294;2023-02-28T09:26:15;102583.47;;;3.73;67.82
76311;BME280;65120;59.304;18.294;2023-02-28T09:28:43;102572.38;;;3.75;67.45
76311;BME280;65120;59.304;18.294;2023-02-28T09:31:15;102570.63;;;3.74;67.73
76311;BME280;65120;59.304;18.294;2023-02-28T09:33:46;102567.47;;;3.81;67.71
76311;BME280;65120;59.304;18.294;2023-02-28T09:36:14;102547.25;;;3.71;67.47
76311;BME280;65120;59.304;18.294;2023-02-28T09:38:41;102585.34;;;3.99;67.56
76311;BME280;65120;59.304;18.294;2023-02-28T09:41:14;102582.00;;;4.02;67.39
76311;BME280;65120;59.304;18.294;2023-02-28T09:43:45;102564.69;;;3.99;67.26
76311;BME280;65120;59.304;18.294;2023-02-28T09:46:25;102580.72;;;4.13;66.94
76311;BME280;65120;59.304;18.294;2023-02-28T09:48:54;102590.41;;;4.19;66.94
76311;BME280;65120;59.304;18.294;2023-02-28T09:51:36;102585.44;;;4.25;66.96
76311;BME280;65120;59.304;18.294;2023-02-28T09:54:10;102579.59;;;4.31;66.90
76311;BME280;65120;59.304;18.294;2023-02-28T09:56:42;102580.66;;;4.36;66.62
76311;BME280;65120;59.304;18.294;2023-02-28T09:59:16;102581.69;;;4.41;66.54
76311;BME280;65120;59.304;18.294;2023-02-28T10:01:50;102566.81;;;4.35;66.49
76311;BME280;65120;59.304;18.294;2023-02-28T10:04:38;102581.19;;;4.51;66.56
76311;BME280;65120;59.304;18.294;2023-02-28T10:07:18;102584.75;;;4.55;66.17
76311;BME280;65120;59.304;18.294;2023-02-28T10:09:51;102600.41;;;4.58;65.93
76311;BME280;65120;59.304;18.294;2023-02-28T10:12:20;102594.47;;;4.60;65.84
76311;BME280;65120;59.304;18.294;2023-02-28T10:14:49;102590.97;;;4.58;65.66
76311;BME280;65120;59.304;18.294;2023-02-28T10:17:20;102605.03;;;4.66;65.78
76311;BME280;65120;59.304;18.294;2023-02-28T10:19:56;102605.13;;;4.69;65.56
76311;BME280;65120;59.304;18.294;2023-02-28T10:22:31;102595.44;;;4.64;65.63
76311;BME280;65120;59.304;18.294;2023-02-28T10:25:17;102616.53;;;4.74;65.59
76311;BME280;65120;59.304;18.294;2023-02-28T10:27:44;102617.56;;;4.80;65.38
76311;BME280;65120;59.304;18.294;2023-02-28T10:30:12;102615.09;;;4.83;65.20
76311;BME280;65120;59.304;18.294;2023-02-28T10:32:44;102617.69;;;4.83;64.97
76311;BME280;65120;59.304;18.294;2023-02-28T10:35:17;102610.13;;;4.89;65.29
76311;BME280;65120;59.304;18.294;2023-02-28T10:37:48;102608.38;;;4.88;64.96
76311;BME280;65120;59.304;18.294;2023-02-28T10:40:31;102610.28;;;4.93;64.89
76311;BME280;65120;59.304;18.294;2023-02-28T10:42:59;102601.69;;;4.94;64.99
76311;BME280;65120;59.304;18.294;2023-02-28T10:45:28;102583.19;;;4.84;64.79
76311;BME280;65120;59.304;18.294;2023-02-28T10:47:58;102600.88;;;4.95;64.73
76311;BME280;65120;59.304;18.294;2023-02-28T10:50:28;102602.69;;;4.98;64.54
76311;BME280;65120;59.304;18.294;2023-02-28T10:53:07;102593.19;;;4.99;64.71
76311;BME280;65120;59.304;18.294;2023-02-28T10:55:35;102601.88;;;5.01;64.45
76311;BME280;65120;59.304;18.294;2023-02-28T10:58:02;102598.47;;;5.02;64.51
76311;BME280;65120;59.304;18.294;2023-02-28T11:00:40;102601.94;;;5.02;64.25
76311;BME280;65120;59.304;18.294;2023-02-28T11:03:23;102590.75;;;5.03;64.34
76311;BME280;65120;59.304;18.294;2023-02-28T11:05:50;102594.28;;;5.05;64.42
76311;BME280;65120;59.304;18.294;2023-02-28T11:08:19;102593.13;;;4.97;64.38
76311;BME280;65120;59.304;18.294;2023-02-28T11:10:47;102604.75;;;5.08;64.07
76311;BME280;65120;59.304;18.294;2023-02-28T11:13:17;102602.22;;;5.10;64.16
76311;BME280;65120;59.304;18.294;2023-02-28T11:15:51;102596.25;;;5.12;64.41
76311;BME280;65120;59.304;18.294;2023-02-28T11:18:23;102593.78;;;5.15;64.31
76311;BME280;65120;59.304;18.294;2023-02-28T11:20:52;102583.41;;;5.15;64.23
76311;BME280;65120;59.304;18.294;2023-02-28T11:23:25;102592.25;;;5.22;64.07
76311;BME280;65120;59.304;18.294;2023-02-28T11:25:56;102600.97;;;5.24;64.09
76311;BME280;65120;59.304;18.294;2023-02-28T11:28:27;102600.22;;;5.28;63.85
76311;BME280;65120;59.304;18.294;2023-02-28T11:31:04;102595.97;;;5.30;64.00
76311;BME280;65120;59.304;18.294;2023-02-28T11:33:32;102598.66;;;5.33;63.83
76311;BME280;65120;59.304;18.294;2023-02-28T11:36:12;102605.66;;;5.36;63.87
76311;BME280;65120;59.304;18.294;2023-02-28T11:38:41;102603.16;;;5.39;63.67
76311;BME280;65120;59.304;18.294;2023-02-28T11:44:16;102599.00;;;5.44;63.63
76311;BME280;65120;59.304;18.294;2023-02-28T11:46:49;102588.66;;;5.44;63.31
76311;BME280;65120;59.304;18.294;2023-02-28T11:49:30;102600.84;;;5.48;63.56
76311;BME280;65120;59.304;18.294;2023-02-28T11:52:02;102594.78;;;5.48;63.36
76311;BME280;65120;59.304;18.294;2023-02-28T11:54:56;102590.66;;;5.54;63.60
76311;BME280;65120;59.304;18.294;2023-02-28T12:00:40;102570.03;;;5.57;63.30
76311;BME280;65120;59.304;18.294;2023-02-28T12:03:17;102567.50;;;5.59;62.89
76311;BME280;65120;59.304;18.294;2023-02-28T12:05:56;102561.56;;;5.63;63.11
76311;BME280;65120;59.304;18.294;2023-02-28T12:08:41;102558.19;;;5.66;62.80
76311;BME280;65120;59.304;18.294;2023-02-28T12:11:15;102561.72;;;5.68;63.28
76311;BME280;65120;59.304;18.294;2023-02-28T12:13:50;102563.53;;;5.70;62.66
76311;BME280;65120;59.304;18.294;2023-02-28T12:16:39;102564.47;;;5.72;62.88
76311;BME280;65120;59.304;18.294;2023-02-28T12:19:19;102560.22;;;5.76;63.07
76311;BME280;65120;59.304;18.294;2023-02-28T12:22:17;102563.75;;;5.78;62.84
76311;BME280;65120;59.304;18.294;2023-02-28T12:25:09;102561.16;;;5.78;62.96
76311;BME280;65120;59.304;18.294;2023-02-28T12:27:49;102552.53;;;5.79;62.78
76311;BME280;65120;59.304;18.294;2023-02-28T12:30:21;102551.78;;;5.83;62.90
76311;BME280;65120;59.304;18.294;2023-02-28T12:32:52;102555.38;;;5.86;62.67
76311;BME280;65120;59.304;18.294;2023-02-28T12:35:24;102557.19;;;5.89;62.76
76311;BME280;65120;59.304;18.294;2023-02-28T12:37:57;102547.69;;;5.90;62.73
76311;BME280;65120;59.304;18.294;2023-02-28T12:40:29;102540.03;;;5.94;62.78
76311;BME280;65120;59.304;18.294;2023-02-28T12:43:03;102540.91;;;5.95;62.69
76311;BME280;65120;59.304;18.294;2023-02-28T12:45:38;102543.66;;;5.99;62.97
76311;BME280;65120;59.304;18.294;2023-02-28T12:48:10;102557.56;;;6.01;62.69
76311;BME280;65120;59.304;18.294;2023-02-28T12:50:40;102562.78;;;6.03;62.26
76311;BME280;65120;59.304;18.294;2023-02-28T12:53:11;102556.63;;;5.99;62.06
76311;BME280;65120;59.304;18.294;2023-02-28T12:55:44;102564.66;;;6.08;62.21
76311;BME280;65120;59.304;18.294;2023-02-28T12:58:22;102544.91;;;6.12;62.11
76311;BME280;65120;59.304;18.294;2023-02-28T13:01:11;102540.59;;;6.13;62.09
76311;BME280;65120;59.304;18.294;2023-02-28T13:06:44;102557.06;;;6.15;62.25
76311;BME280;65120;59.304;18.294;2023-02-28T13:09:19;102556.25;;;6.16;62.20
76311;BME280;65120;59.304;18.294;2023-02-28T13:11:47;102536.19;;;6.10;61.94
76311;BME280;65120;59.304;18.294;2023-02-28T13:14:29;102550.44;;;6.24;62.00
76311;BME280;65120;59.304;18.294;2023-02-28T13:16:59;102541.78;;;6.25;61.96
76311;BME280;65120;59.304;18.294;2023-02-28T13:19:29;102544.28;;;6.21;61.78
76311;BME280;65120;59.304;18.294;2023-02-28T13:21:57;102539.19;;;6.24;61.65
76311;BME280;65120;59.304;18.294;2023-02-28T13:24:44;102557.50;;;6.30;62.11